sensor_id;sensor_type;location;lat;lon;timestamp;pressure;altitude;pressure_sealevel;temperature;humidity
13312;BME280;34033;48.672;9.376;2023-02-02T00:01:08;99177.75;;;5.80;73.70
13312;BME280;34033;48.672;9.376;2023-02-02T00:03:34;99178.22;;;5.82;73.88
13312;BME280;34033;48.672;9.376;2023-02-02T00:05:59;99176.81;;;5.76;73.54
13312;BME280;34033;48.672;9.376;2023-02-02T00:08:25;99174.84;;;5.77;74.09
13312;BME280;34033;48.672;9.376;2023-02-02T00:10:50;99169.53;;;5.72;74.02
13312;BME280;34033;48.672;9.376;2023-02-02T00:13:15;99167.34;;;5.77;74.22
13312;BME280;34033;48.672;9.376;2023-02-02T00:15:41;99160.19;;;5.76;73.83
13312;BME280;34033;48.672;9.376;2023-02-02T00:18:06;99167.00;;;5.79;73.92
13312;BME280;34033;48.672;9.376;2023-02-02T00:20:32;99167.25;;;5.86;74.29
13312;BME280;34033;48.672;9.376;2023-02-02T00:23:01;99166.25;;;5.91;73.89
13312;BME280;34033;48.672;9.376;2023-02-02T00:25:27;99164.22;;;6.00;73.19
13312;BME280;34033;48.672;9.376;2023-02-02T00:27:52;99155.34;;;6.06;73.04
13312;BME280;34033;48.672;9.376;2023-02-02T00:30:17;99168.38;;;5.94;73.08
13312;BME280;34033;48.672;9.376;2023-02-02T00:32:43;99160.69;;;5.91;72.97
13312;BME280;34033;48.672;9.376;2023-02-02T00:35:08;99159.09;;;5.90;72.93
13312;BME280;34033;48.672;9.376;2023-02-02T00:37:34;99167.34;;;5.98;73.10
13312;BME280;34033;48.672;9.376;2023-02-02T00:39:59;99165.25;;;5.95;72.85
13312;BME280;34033;48.672;9.376;2023-02-02T00:42:25;99178.53;;;5.90;72.73
13312;BME280;34033;48.672;9.376;2023-02-02T00:44:50;99161.41;;;5.88;73.08
13312;BME280;34033;48.672;9.376;2023-02-02T00:47:34;99170.66;;;5.92;73.00
13312;BME280;34033;48.672;9.376;2023-02-02T00:50:00;99182.84;;;5.78;73.83
13312;BME280;34033;48.672;9.376;2023-02-02T00:52:25;99182.50;;;5.80;73.78
13312;BME280;34033;48.672;9.376;2023-02-02T00:54:50;99172.63;;;5.70;74.45
13312;BME280;34033;48.672;9.376;2023-02-02T00:57:16;99174.16;;;5.80;74.31
13312;BME280;34033;48.672;9.376;2023-02-02T00:59:41;99176.13;;;5.79;74.30
13312;BME280;34033;48.672;9.376;2023-02-02T01:02:09;99175.06;;;5.72;74.44
13312;BME280;34033;48.672;9.376;2023-02-02T01:04:35;99192.66;;;5.76;74.53
13312;BME280;34033;48.672;9.376;2023-02-02T01:07:00;99173.56;;;5.74;74.87
13312;BME280;34033;48.672;9.376;2023-02-02T01:09:25;99169.75;;;5.79;74.57
13312;BME280;34033;48.672;9.376;2023-02-02T01:11:51;99168.97;;;5.78;74.64
13312;BME280;34033;48.672;9.376;2023-02-02T01:14:16;99172.69;;;5.82;74.63
13312;BME280;34033;48.672;9.376;2023-02-02T01:16:41;99168.28;;;5.81;74.74
13312;BME280;34033;48.672;9.376;2023-02-02T01:19:07;99172.69;;;5.82;74.22
13312;BME280;34033;48.672;9.376;2023-02-02T01:21:33;99179.38;;;5.81;74.62
13312;BME280;34033;48.672;9.376;2023-02-02T01:23:58;99199.69;;;5.73;74.66
13312;BME280;34033;48.672;9.376;2023-02-02T01:26:23;99187.09;;;5.76;75.04
13312;BME280;34033;48.672;9.376;2023-02-02T01:28:49;99183.84;;;5.74;75.11
13312;BME280;34033;48.672;9.376;2023-02-02T01:31:17;99187.09;;;5.76;75.33
13312;BME280;34033;48.672;9.376;2023-02-02T01:33:43;99187.72;;;5.81;74.88
13312;BME280;34033;48.672;9.376;2023-02-02T01:36:18;99176.72;;;5.85;74.87
13312;BME280;34033;48.672;9.376;2023-02-02T01:38:44;99190.47;;;5.81;75.03
13312;BME280;34033;48.672;9.376;2023-02-02T01:41:15;99188.84;;;5.80;75.80
13312;BME280;34033;48.672;9.376;2023-02-02T01:46:18;99186.22;;;5.84;75.95
13312;BME280;34033;48.672;9.376;2023-02-02T01:48:52;99205.09;;;5.91;76.36
13312;BME280;34033;48.672;9.376;2023-02-02T01:51:22;99188.47;;;5.91;76.22
13312;BME280;34033;48.672;9.376;2023-02-02T01:53:50;99192.94;;;5.83;76.80
13312;BME280;34033;48.672;9.376;2023-02-02T01:56:24;99193.88;;;5.87;77.38
13312;BME280;34033;48.672;9.376;2023-02-02T01:58:51;99197.06;;;5.77;77.42
13312;BME280;34033;48.672;9.376;2023-02-02T02:01:16;99187.44;;;5.74;78.04
13312;BME280;34033;48.672;9.376;2023-02-02T02:03:42;99186.56;;;5.82;78.23
13312;BME280;34033;48.672;9.376;2023-02-02T02:06:11;99186.06;;;5.80;77.86
13312;BME280;34033;48.672;9.376;2023-02-02T02:08:51;99177.53;;;5.85;77.98
13312;BME280;34033;48.672;9.376;2023-02-02T02:11:19;99178.78;;;5.76;77.56
13312;BME280;34033;48.672;9.376;2023-02-02T02:13:45;99175.53;;;5.74;77.87
13312;BME280;34033;48.672;9.376;2023-02-02T02:30:45;99179.50;;;5.85;77.65
13312;BME280;34033;48.672;9.376;2023-02-02T02:33:37;99193.88;;;5.87;78.00
13312;BME280;34033;48.672;9.376;2023-02-02T02:36:17;99179.50;;;5.85;78.07
13312;BME280;34033;48.672;9.376;2023-02-02T02:38:50;99191.50;;;5.77;78.29
13312;BME280;34033;48.672;9.376;2023-02-02T02:41:27;99179.81;;;5.71;78.33
13312;BME280;34033;48.672;9.376;2023-02-02T02:43:58;99170.34;;;5.72;78.95
13312;BME280;34033;48.672;9.376;2023-02-02T02:46:25;99181.34;;;5.81;78.85
13312;BME280;34033;48.672;9.376;2023-02-02T02:48:50;99179.38;;;5.81;78.49
13312;BME280;34033;48.672;9.376;2023-02-02T02:51:43;99176.34;;;5.74;78.02
13312;BME280;34033;48.672;9.376;2023-02-02T02:54:12;99188.41;;;5.78;77.86
13312;BME280;34033;48.672;9.376;2023-02-02T03:02:04;99173.56;;;5.74;78.06
13312;BME280;34033;48.672;9.376;2023-02-02T03:04:49;99170.47;;;5.76;78.05
13312;BME280;34033;48.672;9.376;2023-02-02T03:07:25;99165.94;;;5.71;78.10
13312;BME280;34033;48.672;9.376;2023-02-02T03:09:53;99173.44;;;5.71;78.40
13312;BME280;34033;48.672;9.376;2023-02-02T03:12:19;99166.38;;;5.73;78.22
13312;BME280;34033;48.672;9.376;2023-02-02T03:14:45;99163.75;;;5.77;77.60
13312;BME280;34033;48.672;9.376;2023-02-02T03:17:10;99169.38;;;5.68;77.97
13312;BME280;34033;48.672;9.376;2023-02-02T03:19:35;99178.31;;;5.74;78.42
13312;BME280;34033;48.672;9.376;2023-02-02T03:22:00;99172.97;;;5.69;77.98
13312;BME280;34033;48.672;9.376;2023-02-02T03:24:26;99171.50;;;5.71;77.78
13312;BME280;34033;48.672;9.376;2023-02-02T03:26:52;99184.59;;;5.83;77.58
13312;BME280;34033;48.672;9.376;2023-02-02T03:29:17;99181.00;;;5.82;77.73
13312;BME280;34033;48.672;9.376;2023-02-02T03:31:43;99179.50;;;5.85;77.50
13312;BME280;34033;48.672;9.376;2023-02-02T03:34:08;99178.91;;;5.79;77.90
13312;BME280;34033;48.672;9.376;2023-02-02T03:36:33;99177.34;;;5.91;77.97
13312;BME280;34033;48.672;9.376;2023-02-02T03:38:59;99177.13;;;5.96;77.55
13312;BME280;34033;48.672;9.376;2023-02-02T03:41:24;99181.63;;;5.88;77.47
13312;BME280;34033;48.672;9.376;2023-02-02T03:43:50;99186.03;;;5.89;77.49
13312;BME280;34033;48.672;9.376;2023-02-02T03:46:15;99186.50;;;5.91;77.77
13312;BME280;34033;48.672;9.376;2023-02-02T03:48:40;99193.88;;;5.87;77.07
13312;BME280;34033;48.672;9.376;2023-02-02T03:51:11;99188.19;;;5.83;77.69
13312;BME280;34033;48.672;9.376;2023-02-02T03:53:38;99189.00;;;5.84;77.78
13312;BME280;34033;48.672;9.376;2023-02-02T03:56:03;99196.03;;;5.81;78.38
13312;BME280;34033;48.672;9.376;2023-02-02T03:58:29;99195.34;;;5.84;78.10
13312;BME280;34033;48.672;9.376;2023-02-02T04:01:10;99195.97;;;5.90;78.25
13312;BME280;34033;48.672;9.376;2023-02-02T04:03:36;99190.25;;;5.86;77.73
13312;BME280;34033;48.672;9.376;2023-02-02T04:06:01;99199.22;;;5.92;78.33
13312;BME280;34033;48.672;9.376;2023-02-02T04:08:27;99200.63;;;5.98;78.01
13312;BME280;34033;48.672;9.376;2023-02-02T04:10:53;99195.34;;;5.84;78.11
13312;BME280;34033;48.672;9.376;2023-02-02T04:13:18;99212.16;;;5.88;78.50
13312;BME280;34033;48.672;9.376;2023-02-02T04:15:43;99208.88;;;5.86;78.00
13312;BME280;34033;48.672;9.376;2023-02-02T04:18:09;99199.22;;;5.92;78.09
13312;BME280;34033;48.672;9.376;2023-02-02T04:20:34;99212.63;;;5.90;77.76
13312;BME280;34033;48.672;9.376;2023-02-02T04:22:59;99207.88;;;5.91;77.81
13312;BME280;34033;48.672;9.376;2023-02-02T04:25:25;99205.91;;;5.91;77.59
13312;BME280;34033;48.672;9.376;2023-02-02T04:27:50;99211.94;;;5.93;77.63
13312;BME280;34033;48.672;9.376;2023-02-02T04:30:16;99213.09;;;5.92;77.34
13312;BME280;34033;48.672;9.376;2023-02-02T04:32:41;99207.22;;;5.94;77.38
13312;BME280;34033;48.672;9.376;2023-02-02T04:35:07;99207.00;;;5.99;77.44
13312;BME280;34033;48.672;9.376;2023-02-02T04:37:32;99214.19;;;6.00;77.70
13312;BME280;34033;48.672;9.376;2023-02-02T04:39:58;99216.47;;;5.98;77.46
13312;BME280;34033;48.672;9.376;2023-02-02T04:42:23;99221.00;;;6.02;77.38
13312;BME280;34033;48.672;9.376;2023-02-02T04:44:49;99212.56;;;5.99;77.35
13312;BME280;34033;48.672;9.376;2023-02-02T04:47:14;99212.97;;;5.89;77.39
13312;BME280;34033;48.672;9.376;2023-02-02T04:49:40;99218.31;;;5.94;77.75
13312;BME280;34033;48.672;9.376;2023-02-02T04:52:05;99218.44;;;5.97;77.83
13312;BME280;34033;48.672;9.376;2023-02-02T04:54:32;99219.38;;;6.01;77.43
13312;BME280;34033;48.672;9.376;2023-02-02T04:56:57;99231.03;;;5.95;77.81
13312;BME280;34033;48.672;9.376;2023-02-02T04:59:23;99230.69;;;5.96;77.58
13312;BME280;34033;48.672;9.376;2023-02-02T05:01:48;99228.47;;;5.90;78.21
13312;BME280;34033;48.672;9.376;2023-02-02T05:04:15;99231.78;;;5.83;78.30
13312;BME280;34033;48.672;9.376;2023-02-02T05:06:40;99240.91;;;5.83;78.39
13312;BME280;34033;48.672;9.376;2023-02-02T05:09:06;99228.63;;;5.84;78.59
13312;BME280;34033;48.672;9.376;2023-02-02T05:11:31;99237.75;;;5.94;78.52
13312;BME280;34033;48.672;9.376;2023-02-02T05:13:56;99235.31;;;5.92;78.20
13312;BME280;34033;48.672;9.376;2023-02-02T05:16:22;99239.91;;;5.88;78.41
13312;BME280;34033;48.672;9.376;2023-02-02T05:18:50;99243.50;;;5.89;78.40
13312;BME280;34033;48.672;9.376;2023-02-02T05:21:16;99252.75;;;5.93;78.51
13312;BME280;34033;48.672;9.376;2023-02-02T05:23:42;99252.75;;;5.93;78.86
13312;BME280;34033;48.672;9.376;2023-02-02T05:26:12;99253.38;;;5.98;78.49
13312;BME280;34033;48.672;9.376;2023-02-02T05:28:39;99265.75;;;6.01;78.50
13312;BME280;34033;48.672;9.376;2023-02-02T05:31:06;99262.78;;;6.06;77.95
13312;BME280;34033;48.672;9.376;2023-02-02T05:33:31;99260.81;;;6.06;78.06
13312;BME280;34033;48.672;9.376;2023-02-02T05:35:57;99270.63;;;6.04;77.92
13312;BME280;34033;48.672;9.376;2023-02-02T05:38:22;99268.34;;;6.06;77.96
13312;BME280;34033;48.672;9.376;2023-02-02T05:40:48;99267.63;;;6.09;78.04
13312;BME280;34033;48.672;9.376;2023-02-02T05:43:13;99277.59;;;6.10;77.72
13312;BME280;34033;48.672;9.376;2023-02-02T05:45:38;99273.66;;;6.11;77.80
13312;BME280;34033;48.672;9.376;2023-02-02T05:48:04;99269.00;;;6.03;77.95
13312;BME280;34033;48.672;9.376;2023-02-02T05:50:29;99274.81;;;6.10;77.96
13312;BME280;34033;48.672;9.376;2023-02-02T05:52:54;99264.53;;;6.10;78.05
13312;BME280;34033;48.672;9.376;2023-02-02T05:55:20;99264.19;;;6.12;77.81
13312;BME280;34033;48.672;9.376;2023-02-02T05:57:45;99265.13;;;6.16;77.66
13312;BME280;34033;48.672;9.376;2023-02-02T06:00:11;99274.13;;;6.13;77.81
13312;BME280;34033;48.672;9.376;2023-02-02T06:02:36;99279.47;;;6.18;77.73
13312;BME280;34033;48.672;9.376;2023-02-02T06:05:02;99282.22;;;6.06;77.36
13312;BME280;34033;48.672;9.376;2023-02-02T06:07:27;99283.69;;;6.03;78.10
13312;BME280;34033;48.672;9.376;2023-02-02T06:09:52;99284.50;;;6.04;77.99
13312;BME280;34033;48.672;9.376;2023-02-02T06:12:18;99284.84;;;6.02;78.02
13312;BME280;34033;48.672;9.376;2023-02-02T06:14:43;99276.88;;;6.01;78.02
13312;BME280;34033;48.672;9.376;2023-02-02T06:17:09;99280.63;;;5.96;78.49
13312;BME280;34033;48.672;9.376;2023-02-02T06:19:34;99283.41;;;5.96;78.14
13312;BME280;34033;48.672;9.376;2023-02-02T06:22:00;99298.81;;;5.94;78.60
13312;BME280;34033;48.672;9.376;2023-02-02T06:24:25;99293.69;;;5.96;78.66
13312;BME280;34033;48.672;9.376;2023-02-02T06:26:51;99293.97;;;6.03;78.15
13312;BME280;34033;48.672;9.376;2023-02-02T06:29:16;99284.72;;;5.99;78.32
13312;BME280;34033;48.672;9.376;2023-02-02T06:31:41;99293.69;;;5.96;78.80
13312;BME280;34033;48.672;9.376;2023-02-02T06:34:10;99300.44;;;5.95;79.00
13312;BME280;34033;48.672;9.376;2023-02-02T06:36:38;99307.13;;;5.94;79.02
13312;BME280;34033;48.672;9.376;2023-02-02T06:39:04;99296.34;;;5.92;79.12
13312;BME280;34033;48.672;9.376;2023-02-02T06:41:32;99307.34;;;5.89;79.33
13312;BME280;34033;48.672;9.376;2023-02-02T06:43:57;99305.97;;;5.95;79.27
13312;BME280;34033;48.672;9.376;2023-02-02T06:46:23;99309.41;;;5.92;79.16
13312;BME280;34033;48.672;9.376;2023-02-02T06:48:48;99309.28;;;5.88;79.76
13312;BME280;34033;48.672;9.376;2023-02-02T06:51:13;99322.16;;;5.93;79.88
13312;BME280;34033;48.672;9.376;2023-02-02T06:53:39;99327.50;;;5.98;79.95
13312;BME280;34033;48.672;9.376;2023-02-02T06:56:05;99313.63;;;5.98;79.79
13312;BME280;34033;48.672;9.376;2023-02-02T06:58:32;99319.78;;;6.03;79.85
13312;BME280;34033;48.672;9.376;2023-02-02T07:01:09;99321.53;;;6.08;79.81
13312;BME280;34033;48.672;9.376;2023-02-02T07:03:35;99324.09;;;6.13;79.37
13312;BME280;34033;48.672;9.376;2023-02-02T07:06:18;99319.34;;;6.13;79.27
13312;BME280;34033;48.672;9.376;2023-02-02T07:08:44;99314.50;;;6.10;78.93
13312;BME280;34033;48.672;9.376;2023-02-02T07:11:10;99316.94;;;6.12;79.43
13312;BME280;34033;48.672;9.376;2023-02-02T07:13:35;99319.03;;;6.15;79.00
13312;BME280;34033;48.672;9.376;2023-02-02T07:16:03;99322.72;;;6.19;78.74
13312;BME280;34033;48.672;9.376;2023-02-02T07:18:28;99312.31;;;6.16;78.98
13312;BME280;34033;48.672;9.376;2023-02-02T07:20:57;99321.31;;;6.13;79.24
13312;BME280;34033;48.672;9.376;2023-02-02T07:23:23;99317.94;;;6.07;79.65
13312;BME280;34033;48.672;9.376;2023-02-02T07:25:48;99327.06;;;6.08;79.78
13312;BME280;34033;48.672;9.376;2023-02-02T07:28:14;99332.50;;;6.04;80.29
13312;BME280;34033;48.672;9.376;2023-02-02T07:30:39;99333.44;;;6.08;80.08
13312;BME280;34033;48.672;9.376;2023-02-02T07:33:04;99336.91;;;6.05;80.57
13312;BME280;34033;48.672;9.376;2023-02-02T07:35:29;99329.25;;;6.02;80.67
13312;BME280;34033;48.672;9.376;2023-02-02T07:37:55;99332.56;;;5.96;81.65
13312;BME280;34033;48.672;9.376;2023-02-02T07:40:21;99343.47;;;6.01;81.67
13312;BME280;34033;48.672;9.376;2023-02-02T07:42:46;99353.69;;;6.09;81.33
13312;BME280;34033;48.672;9.376;2023-02-02T07:45:13;99340.03;;;6.04;81.41
13312;BME280;34033;48.672;9.376;2023-02-02T07:47:38;99341.03;;;5.99;81.98
13312;BME280;34033;48.672;9.376;2023-02-02T07:50:03;99335.34;;;5.96;82.62
13312;BME280;34033;48.672;9.376;2023-02-02T07:52:29;99347.81;;;5.90;82.48
13312;BME280;34033;48.672;9.376;2023-02-02T07:54:54;99360.50;;;5.91;82.77
13312;BME280;34033;48.672;9.376;2023-02-02T07:57:20;99366.34;;;5.98;82.49
13312;BME280;34033;48.672;9.376;2023-02-02T07:59:45;99360.78;;;5.98;82.30
13312;BME280;34033;48.672;9.376;2023-02-02T08:02:11;99351.59;;;6.06;82.01
13312;BME280;34033;48.672;9.376;2023-02-02T08:04:36;99333.13;;;6.10;81.46
13312;BME280;34033;48.672;9.376;2023-02-02T08:07:01;99331.16;;;6.10;81.35
13312;BME280;34033;48.672;9.376;2023-02-02T08:09:27;99331.28;;;6.14;81.10
13312;BME280;34033;48.672;9.376;2023-02-02T08:11:52;99328.28;;;6.19;81.03
13312;BME280;34033;48.672;9.376;2023-02-02T08:14:17;99320.09;;;6.22;80.95
13312;BME280;34033;48.672;9.376;2023-02-02T08:16:43;99317.44;;;6.26;80.48
13312;BME280;34033;48.672;9.376;2023-02-02T08:19:09;99317.44;;;6.26;80.59
13312;BME280;34033;48.672;9.376;2023-02-02T08:21:35;99314.94;;;6.33;80.24
13312;BME280;34033;48.672;9.376;2023-02-02T08:24:00;99315.28;;;6.32;79.94
13312;BME280;34033;48.672;9.376;2023-02-02T08:26:28;99318.53;;;6.34;79.68
13312;BME280;34033;48.672;9.376;2023-02-02T08:28:56;99319.19;;;6.31;79.42
13312;BME280;34033;48.672;9.376;2023-02-02T08:31:24;99319.47;;;6.38;79.40
13312;BME280;34033;48.672;9.376;2023-02-02T08:33:50;99324.22;;;6.37;79.23
13312;BME280;34033;48.672;9.376;2023-02-02T08:36:19;99327.31;;;6.36;79.30
13312;BME280;34033;48.672;9.376;2023-02-02T08:38:45;99334.88;;;6.47;79.00
13312;BME280;34033;48.672;9.376;2023-02-02T08:41:13;99335.81;;;6.51;78.62
13312;BME280;34033;48.672;9.376;2023-02-02T08:43:39;99344.84;;;6.48;78.38
13312;BME280;34033;48.672;9.376;2023-02-02T08:46:06;99347.69;;;6.40;78.86
13312;BME280;34033;48.672;9.376;2023-02-02T08:48:33;99350.47;;;6.40;79.02
13312;BME280;34033;48.672;9.376;2023-02-02T08:50:59;99362.78;;;6.51;78.71
13312;BME280;34033;48.672;9.376;2023-02-02T08:53:25;99366.53;;;6.55;78.24
13312;BME280;34033;48.672;9.376;2023-02-02T08:56:02;99363.59;;;6.51;78.52
13312;BME280;34033;48.672;9.376;2023-02-02T08:58:29;99361.56;;;6.60;78.48
13312;BME280;34033;48.672;9.376;2023-02-02T09:01:05;99370.66;;;6.49;78.51
13312;BME280;34033;48.672;9.376;2023-02-02T09:03:31;99374.78;;;6.63;78.06
13312;BME280;34033;48.672;9.376;2023-02-02T09:05:56;99379.06;;;6.61;78.04
13312;BME280;34033;48.672;9.376;2023-02-02T09:08:22;99381.25;;;6.55;78.11
13312;BME280;34033;48.672;9.376;2023-02-02T09:10:47;99397.84;;;6.43;78.97
13312;BME280;34033;48.672;9.376;2023-02-02T09:13:12;99392.28;;;6.43;78.56
13312;BME280;34033;48.672;9.376;2023-02-02T09:15:38;99400.63;;;6.22;79.85
13312;BME280;34033;48.672;9.376;2023-02-02T09:18:03;99400.75;;;6.26;79.91
13312;BME280;34033;48.672;9.376;2023-02-02T09:20:28;99402.94;;;6.20;80.20
13312;BME280;34033;48.672;9.376;2023-02-02T09:22:55;99400.63;;;6.22;80.68
13312;BME280;34033;48.672;9.376;2023-02-02T09:25:21;99394.13;;;6.39;80.63
13312;BME280;34033;48.672;9.376;2023-02-02T09:27:47;99394.38;;;6.46;80.06
13312;BME280;34033;48.672;9.376;2023-02-02T09:30:12;99404.28;;;6.35;80.27
13312;BME280;34033;48.672;9.376;2023-02-02T09:32:38;99400.81;;;6.38;80.30
13312;BME280;34033;48.672;9.376;2023-02-02T09:35:03;99397.34;;;6.41;80.38
13312;BME280;34033;48.672;9.376;2023-02-02T09:37:29;99399.72;;;6.51;80.11
13312;BME280;34033;48.672;9.376;2023-02-02T09:39:55;99403.25;;;6.60;79.99
13312;BME280;34033;48.672;9.376;2023-02-02T09:42:44;99396.78;;;6.68;80.15
13312;BME280;34033;48.672;9.376;2023-02-02T09:48:08;99402.00;;;6.70;80.23
13312;BME280;34033;48.672;9.376;2023-02-02T09:55:49;99401.91;;;6.79;78.88
13312;BME280;34033;48.672;9.376;2023-02-02T10:08:54;99413.38;;;6.77;80.58
13312;BME280;34033;48.672;9.376;2023-02-02T10:14:24;99436.34;;;6.86;81.25
13312;BME280;34033;48.672;9.376;2023-02-02T10:16:54;99437.91;;;6.75;81.74
13312;BME280;34033;48.672;9.376;2023-02-02T10:19:23;99436.66;;;6.73;82.12
13312;BME280;34033;48.672;9.376;2023-02-02T10:24:25;99422.41;;;6.74;82.54
13312;BME280;34033;48.672;9.376;2023-02-02T10:26:55;99435.47;;;6.74;82.79
13312;BME280;34033;48.672;9.376;2023-02-02T10:34:57;99428.09;;;6.78;82.96
13312;BME280;34033;48.672;9.376;2023-02-02T10:46:13;99444.16;;;6.72;83.48
13312;BME280;34033;48.672;9.376;2023-02-02T10:48:45;99443.19;;;6.68;84.34
13312;BME280;34033;48.672;9.376;2023-02-02T10:51:31;99445.84;;;6.64;84.32
13312;BME280;34033;48.672;9.376;2023-02-02T10:53:57;99454.06;;;6.61;84.54
13312;BME280;34033;48.672;9.376;2023-02-02T10:56:35;99451.63;;;6.59;84.93
13312;BME280;34033;48.672;9.376;2023-02-02T10:59:05;99449.50;;;6.56;84.77
13312;BME280;34033;48.672;9.376;2023-02-02T11:01:31;99441.66;;;6.58;84.97
13312;BME280;34033;48.672;9.376;2023-02-02T11:03:57;99444.94;;;6.60;85.32
13312;BME280;34033;48.672;9.376;2023-02-02T11:06:41;99451.41;;;6.64;85.01
13312;BME280;34033;48.672;9.376;2023-02-02T11:09:24;99451.41;;;6.64;84.70
13312;BME280;34033;48.672;9.376;2023-02-02T11:11:53;99457.66;;;6.61;84.73
13312;BME280;34033;48.672;9.376;2023-02-02T11:14:33;99451.22;;;6.69;85.12
13312;BME280;34033;48.672;9.376;2023-02-02T11:17:04;99453.72;;;6.62;85.34
13312;BME280;34033;48.672;9.376;2023-02-02T11:19:31;99457.91;;;6.68;85.72
13312;BME280;34033;48.672;9.376;2023-02-02T11:22:00;99456.50;;;6.62;85.04
13312;BME280;34033;48.672;9.376;2023-02-02T11:24:48;99452.78;;;6.58;85.26
13312;BME280;34033;48.672;9.376;2023-02-02T11:27:21;99452.97;;;6.53;85.51
13312;BME280;34033;48.672;9.376;2023-02-02T11:29:50;99456.84;;;6.61;85.75
13312;BME280;34033;48.672;9.376;2023-02-02T11:34:41;99455.50;;;6.67;85.20
13312;BME280;34033;48.672;9.376;2023-02-02T11:37:12;99459.34;;;6.75;85.61
13312;BME280;34033;48.672;9.376;2023-02-02T11:39:40;99459.53;;;6.69;85.40
13312;BME280;34033;48.672;9.376;2023-02-02T11:42:21;99451.81;;;6.75;85.30
13312;BME280;34033;48.672;9.376;2023-02-02T11:44:56;99454.72;;;6.79;85.41
13312;BME280;34033;48.672;9.376;2023-02-02T11:47:32;99446.66;;;6.86;85.70
13312;BME280;34033;48.672;9.376;2023-02-02T11:49:59;99465.63;;;6.84;85.28
13312;BME280;34033;48.672;9.376;2023-02-02T11:52:27;99457.72;;;6.74;85.85
13312;BME280;34033;48.672;9.376;2023-02-02T11:54:56;99449.16;;;6.79;86.65
13312;BME280;34033;48.672;9.376;2023-02-02T11:57:24;99449.91;;;6.88;85.87
13312;BME280;34033;48.672;9.376;2023-02-02T12:00:36;99449.31;;;6.82;85.66
13312;BME280;34033;48.672;9.376;2023-02-02T12:02:44;99457.75;;;6.86;85.61
13312;BME280;34033;48.672;9.376;2023-02-02T12:07:46;99457.09;;;6.89;85.75
13312;BME280;34033;48.672;9.376;2023-02-02T12:10:13;99437.81;;;6.84;86.76
13312;BME280;34033;48.672;9.376;2023-02-02T12:12:59;99431.13;;;6.85;86.65
13312;BME280;34033;48.672;9.376;2023-02-02T12:21:07;99421.28;;;6.87;87.23
13312;BME280;34033;48.672;9.376;2023-02-02T12:26:49;99422.66;;;6.81;87.27
13312;BME280;34033;48.672;9.376;2023-02-02T12:45:25;99425.72;;;6.88;87.64
13312;BME280;34033;48.672;9.376;2023-02-02T12:48:17;99419.44;;;6.91;87.40
13312;BME280;34033;48.672;9.376;2023-02-02T12:53:29;99417.59;;;6.95;86.72
13312;BME280;34033;48.672;9.376;2023-02-02T12:56:32;99425.06;;;7.03;87.05
13312;BME280;34033;48.672;9.376;2023-02-02T13:06:41;99428.22;;;7.14;86.31
13312;BME280;34033;48.672;9.376;2023-02-02T13:11:51;99433.28;;;7.00;86.15
13312;BME280;34033;48.672;9.376;2023-02-02T13:14:31;99422.50;;;6.98;87.45
13312;BME280;34033;48.672;9.376;2023-02-02T13:19:41;99422.66;;;6.81;86.19
13312;BME280;34033;48.672;9.376;2023-02-02T13:22:40;99433.19;;;6.76;85.29
13312;BME280;34033;48.672;9.376;2023-02-02T13:25:13;99433.78;;;6.81;85.87
13312;BME280;34033;48.672;9.376;2023-02-02T13:27:41;99438.41;;;6.77;86.16
13312;BME280;34033;48.672;9.376;2023-02-02T13:30:30;99445.94;;;6.77;86.37
13312;BME280;34033;48.672;9.376;2023-02-02T13:33:22;99443.81;;;6.74;86.69
13312;BME280;34033;48.672;9.376;2023-02-02T13:35:53;99441.84;;;6.74;86.44
13312;BME280;34033;48.672;9.376;2023-02-02T13:38:25;99446.13;;;6.72;86.01
13312;BME280;34033;48.672;9.376;2023-02-02T13:40:53;99454.94;;;6.74;86.47
13312;BME280;34033;48.672;9.376;2023-02-02T14:02:03;99466.16;;;6.98;84.70
13312;BME280;34033;48.672;9.376;2023-02-02T14:04:31;99479.25;;;6.97;84.25
13312;BME280;34033;48.672;9.376;2023-02-02T14:07:00;99485.34;;;6.91;83.96
13312;BME280;34033;48.672;9.376;2023-02-02T14:09:32;99490.47;;;7.01;83.77
13312;BME280;34033;48.672;9.376;2023-02-02T14:12:00;99482.13;;;7.01;83.23
13312;BME280;34033;48.672;9.376;2023-02-02T14:14:27;99493.97;;;6.98;82.82
13312;BME280;34033;48.672;9.376;2023-02-02T14:17:01;99484.69;;;6.94;83.34
13312;BME280;34033;48.672;9.376;2023-02-02T14:31:56;99480.88;;;6.98;83.56
13312;BME280;34033;48.672;9.376;2023-02-02T14:34:35;99494.16;;;6.93;82.23
13312;BME280;34033;48.672;9.376;2023-02-02T14:37:39;99499.13;;;6.87;82.81
13312;BME280;34033;48.672;9.376;2023-02-02T14:45:32;99494.50;;;6.91;82.79
13312;BME280;34033;48.672;9.376;2023-02-02T14:58:37;99499.03;;;6.96;81.97
13312;BME280;34033;48.672;9.376;2023-02-02T15:23:15;99507.53;;;6.99;80.81
13312;BME280;34033;48.672;9.376;2023-02-02T15:25:46;99504.25;;;6.97;81.01
13312;BME280;34033;48.672;9.376;2023-02-02T15:31:40;99509.13;;;7.00;80.81
13312;BME280;34033;48.672;9.376;2023-02-02T15:36:59;99517.00;;;6.98;80.06
13312;BME280;34033;48.672;9.376;2023-02-02T15:39:42;99515.38;;;6.97;80.97
13312;BME280;34033;48.672;9.376;2023-02-02T15:42:19;99518.72;;;6.91;80.37
13312;BME280;34033;48.672;9.376;2023-02-02T15:45:05;99524.59;;;6.89;79.80
13312;BME280;34033;48.672;9.376;2023-02-02T15:47:34;99531.56;;;6.95;79.75
13312;BME280;34033;48.672;9.376;2023-02-02T15:50:03;99531.47;;;6.92;79.65
13312;BME280;34033;48.672;9.376;2023-02-02T15:52:44;99526.03;;;6.95;79.52
13312;BME280;34033;48.672;9.376;2023-02-02T15:55:19;99545.41;;;7.04;79.40
13312;BME280;34033;48.672;9.376;2023-02-02T15:57:46;99545.63;;;6.99;79.34
13312;BME280;34033;48.672;9.376;2023-02-02T16:03:03;99560.69;;;6.98;78.98
13312;BME280;34033;48.672;9.376;2023-02-02T16:07:57;99577.84;;;7.00;78.96
13312;BME280;34033;48.672;9.376;2023-02-02T16:10:24;99580.06;;;7.06;78.59
13312;BME280;34033;48.672;9.376;2023-02-02T16:12:50;99579.94;;;7.03;78.66
13312;BME280;34033;48.672;9.376;2023-02-02T16:15:24;99582.72;;;7.03;78.53
13312;BME280;34033;48.672;9.376;2023-02-02T16:18:00;99586.97;;;7.00;79.19
13312;BME280;34033;48.672;9.376;2023-02-02T16:20:28;99593.03;;;7.02;79.14
13312;BME280;34033;48.672;9.376;2023-02-02T16:22:55;99605.38;;;7.13;79.04
13312;BME280;34033;48.672;9.376;2023-02-02T16:25:28;99607.94;;;7.19;78.87